Observation data for Amherst on 12/08/2018      Previous  Date       Current Mesonet Observations  Soil Data  Daily Summary Page  Observations in Plain Language
KAMH 080600Z 03007KT M01/M01 A3027 RMK A01 T10071012  RH  097%=      5-min Rain = 0
KAMH 080605Z 03006KT M01/M01 A3027 RMK A01 T10071013  RH  097%=      5-min Rain = 0
KAMH 080610Z 03007KT M01/M01 A3027 RMK A01 T10071013  RH  097%=      5-min Rain = 0
KAMH 080615Z 03006KT M01/M01 A3027 RMK A01 T10071013  RH  097%=      5-min Rain = 0
KAMH 080620Z 03006KT M01/M01 A3027 RMK A01 T10071013  RH  097%=      5-min Rain = 0
KAMH 080625Z 03006KT M01/M01 A3027 RMK A01 T10081013  RH  097%=      5-min Rain = 0
KAMH 080630Z 03006KT M01/M01 A3027 RMK A01 T10081013  RH  097%=      5-min Rain = 0
KAMH 080635Z 03006KT M01/M01 A3027 RMK A01 T10081013  RH  097%=      5-min Rain = 0
KAMH 080640Z 03005KT M01/M01 A3027 RMK A01 T10081013  RH  097%=      5-min Rain = 0
KAMH 080645Z 03007KT M01/M01 A3027 RMK A01 T10081013  RH  097%=      5-min Rain = 0
KAMH 080650Z 04006KT M01/M01 A3027 RMK A01 T10091014  RH  097%=      5-min Rain = 0
KAMH 080655Z 04005KT M01/M01 A3027 RMK A01 T10091014  RH  097%=      5-min Rain = 0
KAMH 080700Z 03005KT M01/M01 A3027 RMK A01 T10091014  RH  097%=      5-min Rain = 0
KAMH 080705Z 03006KT M01/M01 A3027 RMK A01 T10091014  RH  097%=      5-min Rain = 0
KAMH 080710Z 03005KT M01/M02 A3027 RMK A01 T10101015  RH  097%=      5-min Rain = 0
KAMH 080715Z 01006KT M01/M02 A3027 RMK A01 T10101015  RH  097%=      5-min Rain = 0
KAMH 080720Z 02009KT M01/M02 A3027 RMK A01 T10121017  RH  097%=      5-min Rain = 0
KAMH 080725Z 03008KT M01/M02 A3027 RMK A01 T10131018  RH  097%=      5-min Rain = 0
KAMH 080730Z 03008KT M01/M02 A3027 RMK A01 T10131018  RH  097%=      5-min Rain = 0
KAMH 080735Z 03008KT M01/M02 A3027 RMK A01 T10131018  RH  097%=      5-min Rain = 0
KAMH 080740Z 02007KT M01/M02 A3026 RMK A01 T10131018  RH  097%=      5-min Rain = 0
KAMH 080745Z 02008KT M01/M02 A3026 RMK A01 T10131018  RH  097%=      5-min Rain = 0
KAMH 080750Z 01007KT M01/M02 A3027 RMK A01 T10141018  RH  097%=      5-min Rain = 0
KAMH 080755Z 02007KT M01/M02 A3027 RMK A01 T10141018  RH  097%=      5-min Rain = 0
KAMH 080800Z 02007KT M01/M02 A3026 RMK A01 T10141018  RH  098%=      5-min Rain = 0
KAMH 080805Z 02006KT M01/M02 A3026 RMK A01 T10141018  RH  098%=      5-min Rain = 0
KAMH 080810Z 02006KT M01/M02 A3026 RMK A01 T10141018  RH  098%=      5-min Rain = 0
KAMH 080815Z 01006KT M01/M02 A3026 RMK A01 T10141018  RH  098%=      5-min Rain = 0
KAMH 080820Z 00006KT M01/M02 A3026 RMK A01 T10141018  RH  098%=      5-min Rain = 0
KAMH 080825Z 01006KT M01/M02 A3026 RMK A01 T10131017  RH  098%=      5-min Rain = 0
KAMH 080830Z 00005KT M01/M02 A3026 RMK A01 T10131017  RH  098%=      5-min Rain = 0
KAMH 080835Z 01006KT M01/M02 A3026 RMK A01 T10131017  RH  098%=      5-min Rain = 0
KAMH 080840Z 01005KT M01/M02 A3025 RMK A01 T10131017  RH  098%=      5-min Rain = 0
KAMH 080845Z 01006KT M01/M02 A3025 RMK A01 T10131016  RH  098%=      5-min Rain = 0
KAMH 080850Z 01006KT M01/M02 A3025 RMK A01 T10131016  RH  098%=      5-min Rain = 0
KAMH 080855Z 01007KT M01/M02 A3025 RMK A01 T10131017  RH  098%=      5-min Rain = 0
KAMH 080900Z 01008KT M01/M02 A3025 RMK A01 T10131016  RH  098%=      5-min Rain = 0
KAMH 080905Z 02007KT M01/M02 A3025 RMK A01 T10131016  RH  098%=      5-min Rain = 0
KAMH 080910Z 01006KT M01/M02 A3025 RMK A01 T10131016  RH  098%=      5-min Rain = 0
KAMH 080915Z 02008KT M01/M02 A3025 RMK A01 T10131016  RH  098%=      5-min Rain = 0
KAMH 080920Z 01007KT M01/M02 A3025 RMK A01 T10131017  RH  098%=      5-min Rain = 0
KAMH 080925Z 01007KT M01/M02 A3025 RMK A01 T10131017  RH  098%=      5-min Rain = 0
KAMH 080930Z 02007KT M01/M02 A3025 RMK A01 T10141017  RH  098%=      5-min Rain = 0
KAMH 080935Z 01006KT M01/M02 A3025 RMK A01 T10141018  RH  098%=      5-min Rain = 0
KAMH 080940Z 01007KT M01/M02 A3025 RMK A01 T10141018  RH  098%=      5-min Rain = 0
KAMH 080945Z 01008KT M01/M02 A3025 RMK A01 T10141018  RH  098%=      5-min Rain = 0
KAMH 080950Z 01009KT M01/M02 A3024 RMK A01 T10141018  RH  098%=      5-min Rain = 0
KAMH 080955Z 01007KT M01/M02 A3024 RMK A01 T10141018  RH  098%=      5-min Rain = 0
KAMH 081000Z 01006KT M01/M02 A3024 RMK A01 T10141018  RH  098%=      5-min Rain = 0
KAMH 081005Z 01007KT M01/M02 A3024 RMK A01 T10141018  RH  098%=      5-min Rain = 0
KAMH 081010Z 00008KT M01/M02 A3024 RMK A01 T10131017  RH  098%=      5-min Rain = 0
KAMH 081015Z 00008KT M01/M02 A3024 RMK A01 T10131017  RH  098%=      5-min Rain = 0
KAMH 081020Z 00008KT M01/M02 A3024 RMK A01 T10131017  RH  098%=      5-min Rain = 0
KAMH 081025Z 00009KT M01/M02 A3024 RMK A01 T10131017  RH  098%=      5-min Rain = 0
KAMH 081030Z 36008KT M01/M02 A3024 RMK A01 T10131017  RH  098%=      5-min Rain = 0
KAMH 081035Z 35009KT M01/M02 A3023 RMK A01 T10131016  RH  098%=      5-min Rain = 0
KAMH 081040Z 35008KT M01/M02 A3023 RMK A01 T10131016  RH  098%=      5-min Rain = 0
KAMH 081045Z 35009KT M01/M02 A3023 RMK A01 T10131016  RH  098%=      5-min Rain = 0
KAMH 081050Z 35009KT M01/M02 A3023 RMK A01 T10121016  RH  098%=      5-min Rain = 0
KAMH 081055Z 35010KT M01/M02 A3023 RMK A01 T10121015  RH  098%=      5-min Rain = 0
KAMH 081100Z 36010KT M01/M02 A3023 RMK A01 T10121015  RH  098%=      5-min Rain = 0
KAMH 081105Z 36010KT M01/M02 A3023 RMK A01 T10121015  RH  098%=      5-min Rain = 0
KAMH 081110Z 00009KT M01/M02 A3023 RMK A01 T10111015  RH  098%=      5-min Rain = 0
KAMH 081115Z 00009KT M01/M02 A3023 RMK A01 T10111015  RH  098%=      5-min Rain = 0
KAMH 081120Z 00008KT M01/M02 A3023 RMK A01 T10111015  RH  098%=      5-min Rain = 0
KAMH 081125Z 00008KT M01/M02 A3023 RMK A01 T10111015  RH  098%=      5-min Rain = 0
KAMH 081130Z 00008KT M01/M02 A3023 RMK A01 T10111015  RH  098%=      5-min Rain = 0
KAMH 081135Z 01011KT M01/M02 A3023 RMK A01 T10121016  RH  098%=      5-min Rain = 0
KAMH 081140Z 01010KT M01/M02 A3023 RMK A01 T10141017  RH  098%=      5-min Rain = 0
KAMH 081145Z 01009KT M01/M02 A3023 RMK A01 T10141018  RH  098%=      5-min Rain = 0
KAMH 081150Z 00010KT M01/M02 A3024 RMK A01 T10141018  RH  098%=      5-min Rain = 0
KAMH 081155Z 00010KT M01/M02 A3024 RMK A01 T10141018  RH  098%=      5-min Rain = 0
KAMH 081200Z 00010KT M01/M02 A3024 RMK A01 T10141018  RH  098%=      5-min Rain = 0
KAMH 081205Z 01010KT M02/M02 A3024 RMK A01 T10151018  RH  098%=      5-min Rain = 0
KAMH 081210Z 01011KT M02/M02 A3024 RMK A01 T10151019  RH  098%=      5-min Rain = 0
KAMH 081215Z 00010KT M02/M02 A3025 RMK A01 T10161019  RH  098%=      5-min Rain = 0
KAMH 081220Z 01009KT M02/M02 A3025 RMK A01 T10161020  RH  098%=      5-min Rain = 0
KAMH 081225Z 01009KT M02/M02 A3025 RMK A01 T10161020  RH  098%=      5-min Rain = 0
KAMH 081230Z 01008KT M02/M02 A3025 RMK A01 T10161020  RH  098%=      5-min Rain = 0
KAMH 081235Z 01008KT M02/M02 A3025 RMK A01 T10161020  RH  098%=      5-min Rain = 0
KAMH 081240Z 01007KT M02/M02 A3025 RMK A01 T10161020  RH  098%=      5-min Rain = 0
KAMH 081245Z 01006KT M02/M02 A3025 RMK A01 T10161020  RH  098%=      5-min Rain = 0
KAMH 081250Z 01005KT M02/M02 A3025 RMK A01 T10161020  RH  098%=      5-min Rain = 0
KAMH 081255Z 01006KT M02/M02 A3025 RMK A01 T10161020  RH  098%=      5-min Rain = 0
KAMH 081300Z 01006KT M02/M02 A3026 RMK A01 T10161020  RH  098%=      5-min Rain = 0
KAMH 081305Z 00005KT M02/M02 A3026 RMK A01 T10161020  RH  098%=      5-min Rain = 0
KAMH 081310Z 36005KT M02/M02 A3026 RMK A01 T10161020  RH  098%=      5-min Rain = 0
KAMH 081315Z 35005KT M02/M02 A3026 RMK A01 T10161020  RH  098%=      5-min Rain = 0
KAMH 081320Z 35004KT M02/M02 A3027 RMK A01 T10161020  RH  098%=      5-min Rain = 0
KAMH 081325Z 34003KT M02/M02 A3027 RMK A01 T10161020  RH  098%=      5-min Rain = 0
KAMH 081330Z 34004KT M02/M02 A3027 RMK A01 T10161020  RH  098%=      5-min Rain = 0
KAMH 081335Z 35005KT M02/M02 A3027 RMK A01 T10161020  RH  098%=      5-min Rain = 0
KAMH 081340Z 35006KT M02/M02 A3027 RMK A01 T10161020  RH  098%=      5-min Rain = 0
KAMH 081345Z 35006KT M02/M02 A3028 RMK A01 T10161020  RH  098%=      5-min Rain = 0
KAMH 081350Z 35005KT M02/M02 A3028 RMK A01 T10161020  RH  098%=      5-min Rain = 0
KAMH 081355Z 34005KT M02/M02 A3028 RMK A01 T10161020  RH  098%=      5-min Rain = 0
KAMH 081400Z 34005KT M02/M02 A3028 RMK A01 T10161020  RH  098%=      5-min Rain = 0
KAMH 081405Z 34004KT M02/M02 A3028 RMK A01 T10161020  RH  098%=      5-min Rain = 0
KAMH 081410Z 33004KT M02/M02 A3029 RMK A01 T10161020  RH  098%=      5-min Rain = 0
KAMH 081415Z 33004KT M02/M02 A3029 RMK A01 T10161020  RH  098%=      5-min Rain = 0
KAMH 081420Z 33004KT M02/M02 A3029 RMK A01 T10161020  RH  098%=      5-min Rain = 0
KAMH 081425Z 33004KT M02/M02 A3029 RMK A01 T10161020  RH  098%=      5-min Rain = 0
KAMH 081430Z 32004KT M02/M02 A3029 RMK A01 T10151019  RH  098%=      5-min Rain = 0
KAMH 081435Z 32004KT M02/M02 A3029 RMK A01 T10151019  RH  098%=      5-min Rain = 0
KAMH 081440Z 33004KT M02/M02 A303 RMK A01 T10151018  RH  098%=      5-min Rain = 0
KAMH 081445Z 33004KT M01/M02 A303 RMK A01 T10141018  RH  098%=      5-min Rain = 0
KAMH 081450Z 33004KT M01/M02 A303 RMK A01 T10141018  RH  098%=      5-min Rain = 0
KAMH 081455Z 32004KT M01/M02 A303 RMK A01 T10141018  RH  098%=      5-min Rain = 0
KAMH 081500Z 32004KT M01/M02 A303 RMK A01 T10141018  RH  098%=      5-min Rain = 0
KAMH 081505Z 33005KT M01/M02 A303 RMK A01 T10141018  RH  098%=      5-min Rain = 0
KAMH 081510Z 33005KT M01/M02 A303 RMK A01 T10141018  RH  098%=      5-min Rain = 0
KAMH 081515Z 32005KT M01/M02 A3031 RMK A01 T10141018  RH  098%=      5-min Rain = 0
KAMH 081520Z 33005KT M01/M02 A3031 RMK A01 T10141018  RH  098%=      5-min Rain = 0
KAMH 081525Z 34005KT M01/M02 A3031 RMK A01 T10141018  RH  098%=      5-min Rain = 0
KAMH 081530Z 34004KT M01/M02 A3031 RMK A01 T10131017  RH  098%=      5-min Rain = 0
KAMH 081535Z 35004KT M01/M02 A3031 RMK A01 T10121016  RH  098%=      5-min Rain = 0
KAMH 081540Z 35004KT M01/M02 A3031 RMK A01 T10121015  RH  098%=      5-min Rain = 0
KAMH 081545Z 35005KT M01/M02 A3031 RMK A01 T10111015  RH  098%=      5-min Rain = 0
KAMH 081550Z 34005KT M01/M02 A3031 RMK A01 T10121015  RH  098%=      5-min Rain = 0
KAMH 081555Z 34005KT M01/M02 A3031 RMK A01 T10121015  RH  098%=      5-min Rain = 0
KAMH 081600Z 35005KT M01/M02 A3031 RMK A01 T10111015  RH  098%=      5-min Rain = 0
KAMH 081605Z 35005KT M01/M02 A3031 RMK A01 T10111015  RH  098%=      5-min Rain = 0
KAMH 081610Z 34005KT M01/M02 A3031 RMK A01 T10111015  RH  098%=      5-min Rain = 0
KAMH 081615Z 34005KT M01/M01 A3031 RMK A01 T10111014  RH  098%=      5-min Rain = 0
KAMH 081620Z 34006KT M01/M01 A3031 RMK A01 T10101014  RH  098%=      5-min Rain = 0
KAMH 081625Z 34005KT M01/M01 A3031 RMK A01 T10091013  RH  098%=      5-min Rain = 0
KAMH 081630Z 33005KT M01/M01 A3031 RMK A01 T10081012  RH  098%=      5-min Rain = 0
KAMH 081635Z 33006KT M01/M01 A3031 RMK A01 T10081012  RH  098%=      5-min Rain = 0
KAMH 081640Z 33006KT M01/M01 A3031 RMK A01 T10081012  RH  098%=      5-min Rain = 0
KAMH 081645Z 34006KT M01/M01 A3031 RMK A01 T10081011  RH  098%=      5-min Rain = 0
KAMH 081650Z 34006KT M01/M01 A3031 RMK A01 T10061010  RH  098%=      5-min Rain = 0
KAMH 081655Z 34006KT M01/M01 A3031 RMK A01 T10051009  RH  098%=      5-min Rain = 0
KAMH 081700Z 35006KT M00/M01 A3031 RMK A01 T10041008  RH  098%=      5-min Rain = 0
KAMH 081705Z 35006KT M00/M01 A3031 RMK A01 T10031007  RH  099%=      5-min Rain = 0
KAMH 081710Z 35006KT M00/M01 A3031 RMK A01 T10031006  RH  099%=      5-min Rain = 0
KAMH 081715Z 35006KT M00/M01 A3031 RMK A01 T10021005  RH  099%=      5-min Rain = 0
KAMH 081720Z 35006KT M00/M01 A3031 RMK A01 T10021005  RH  099%=      5-min Rain = 0
KAMH 081725Z 35005KT M00/M01 A3031 RMK A01 T10011005  RH  099%=      5-min Rain = 0
KAMH 081730Z 35006KT M00/M00 A3031 RMK A01 T10011004  RH  099%=      5-min Rain = 0
KAMH 081735Z 35007KT M00/M00 A3031 RMK A01 T10011004  RH  099%=      5-min Rain = 0
KAMH 081740Z 35006KT M00/M00 A3031 RMK A01 T10011004  RH  099%=      5-min Rain = 0
KAMH 081745Z 00006KT 00/M00 A303 RMK A01 T00011003  RH  099%=      5-min Rain = 0
KAMH 081750Z 00005KT 00/M00 A303 RMK A01 T00021001  RH  099%=      5-min Rain = 0
KAMH 081755Z 00006KT 00/00 A303 RMK A01 T00040001  RH  099%=      5-min Rain = 0
KAMH 081800Z 36006KT 01/00 A303 RMK A01 T00060003  RH  099%=      5-min Rain = 0.01
KAMH 081805Z 00005KT 01/00 A3029 RMK A01 T00080004  RH  099%=      5-min Rain = 0.01
KAMH 081810Z 01005KT 01/01 A3029 RMK A01 T00090006  RH  099%=      5-min Rain = 0.02
KAMH 081815Z 01005KT 01/01 A3029 RMK A01 T00080005  RH  099%=      5-min Rain = 0.02
KAMH 081820Z 01005KT 01/00 A3029 RMK A01 T00080004  RH  098%=      5-min Rain = 0.02
KAMH 081825Z 02005KT 01/00 A3028 RMK A01 T00080003  RH  098%=      5-min Rain = 0.02
KAMH 081830Z 00005KT 01/00 A3028 RMK A01 T00070002  RH  098%=      5-min Rain = 0.03
KAMH 081835Z 00005KT 01/00 A3028 RMK A01 T000500-0  RH  098%=      5-min Rain = 0.03
KAMH 081840Z 00005KT 01/00 A3028 RMK A01 T00050000  RH  098%=      5-min Rain = 0.02
KAMH 081845Z 35006KT 00/M00 A3028 RMK A01 T00031001  RH  098%=      5-min Rain = 0.03
KAMH 081850Z 35005KT 00/M00 A3028 RMK A01 T00031002  RH  098%=      5-min Rain = 0.03
KAMH 081855Z 36005KT 00/M00 A3028 RMK A01 T00041001  RH  098%=      5-min Rain = 0.02
KAMH 081900Z 00004KT 01/00 A3027 RMK A01 T00060001  RH  098%=      5-min Rain = 0.03
KAMH 081905Z 01005KT 01/00 A3027 RMK A01 T00080002  RH  097%=      5-min Rain = 0.03
KAMH 081910Z 01004KT 01/00 A3027 RMK A01 T00070001  RH  097%=      5-min Rain = 0.02
KAMH 081915Z 00004KT 00/M01 A3027 RMK A01 T00031007  RH  094%=      5-min Rain = 0.03
KAMH 081920Z 36004KT 00/M01 A3027 RMK A01 T00031010  RH  092%=      5-min Rain = 0.03
KAMH 081925Z 35005KT 00/M01 A3027 RMK A01 T00031011  RH  091%=      5-min Rain = 0.02
KAMH 081930Z 36005KT 00/M01 A3027 RMK A01 T00031012  RH  091%=      5-min Rain = 0.03
KAMH 081935Z 36005KT 00/M01 A3026 RMK A01 T00041011  RH  091%=      5-min Rain = 0.03
KAMH 081940Z 36005KT 00/M01 A3026 RMK A01 T00041011  RH  090%=      5-min Rain = 0.02
KAMH 081945Z 00004KT 01/M01 A3026 RMK A01 T00051010  RH  091%=      5-min Rain = 0.02
KAMH 081950Z 36004KT 01/M01 A3026 RMK A01 T00051012  RH  089%=      5-min Rain = 0.03
KAMH 081955Z 33005KT 01/M01 A3026 RMK A01 T00061012  RH  089%=      5-min Rain = 0.02
KAMH 082000Z 33006KT 01/M01 A3025 RMK A01 T00061013  RH  088%=      5-min Rain = 0.02
KAMH 082005Z 33006KT 01/M01 A3025 RMK A01 T00061012  RH  088%=      5-min Rain = 0.03
KAMH 082010Z 33006KT 01/M01 A3025 RMK A01 T00061013  RH  088%=      5-min Rain = 0.02
KAMH 082015Z 33005KT 01/M01 A3025 RMK A01 T00071012  RH  088%=      5-min Rain = 0.02
KAMH 082020Z 34004KT 01/M01 A3024 RMK A01 T00091012  RH  087%=      5-min Rain = 0.02
KAMH 082025Z 35004KT 01/M01 A3024 RMK A01 T00101012  RH  086%=      5-min Rain = 0.02
KAMH 082030Z 34004KT 01/M01 A3024 RMK A01 T00081013  RH  086%=      5-min Rain = 0.02
KAMH 082035Z 36004KT 01/M01 A3024 RMK A01 T00081014  RH  086%=      5-min Rain = 0.02
KAMH 082040Z 36004KT 01/M01 A3024 RMK A01 T00081014  RH  086%=      5-min Rain = 0.01
KAMH 082045Z 36004KT 01/M01 A3024 RMK A01 T00101014  RH  085%=      5-min Rain = 0.03
KAMH 082050Z 35003KT 01/M02 A3024 RMK A01 T00081015  RH  085%=      5-min Rain = 0
KAMH 082055Z 34004KT 01/M01 A3024 RMK A01 T00101013  RH  085%=      5-min Rain = 0
KAMH 082100Z 35004KT 01/M01 A3024 RMK A01 T00121014  RH  084%=      5-min Rain = 0
KAMH 082105Z 35003KT 01/M02 A3024 RMK A01 T00121016  RH  082%=      5-min Rain = 0
KAMH 082110Z 35003KT 01/M02 A3024 RMK A01 T00131018  RH  081%=      5-min Rain = 0
KAMH 082115Z 35002KT 01/M02 A3024 RMK A01 T00131020  RH  079%=      5-min Rain = 0
KAMH 082120Z 36002KT 01/M02 A3024 RMK A01 T00141020  RH  079%=      5-min Rain = 0
KAMH 082125Z 36002KT 01/M02 A3024 RMK A01 T00141022  RH  077%=      5-min Rain = 0
KAMH 082130Z 00002KT 01/M02 A3024 RMK A01 T00131023  RH  077%=      5-min Rain = 0
KAMH 082135Z 00002KT 01/M02 A3024 RMK A01 T00131023  RH  077%=      5-min Rain = 0
KAMH 082140Z 00002KT 02/M03 A3024 RMK A01 T00151026  RH  075%=      5-min Rain = 0
KAMH 082145Z 01001KT 02/M03 A3024 RMK A01 T00161026  RH  074%=      5-min Rain = 0
KAMH 082150Z 04001KT 02/M03 A3023 RMK A01 T00181026  RH  073%=      5-min Rain = 0
KAMH 082155Z 07001KT 02/M03 A3023 RMK A01 T00191028  RH  072%=      5-min Rain = 0
KAMH 082200Z 08001KT 02/M03 A3023 RMK A01 T00181028  RH  072%=      5-min Rain = 0
KAMH 082205Z 05001KT 02/M03 A3023 RMK A01 T00221027  RH  071%=      5-min Rain = 0
KAMH 082210Z 07001KT 02/M03 A3023 RMK A01 T00211027  RH  071%=      5-min Rain = 0
KAMH 082215Z 08001KT 02/M03 A3023 RMK A01 T00231026  RH  071%=      5-min Rain = 0
KAMH 082220Z 07001KT 02/M03 A3023 RMK A01 T00211029  RH  070%=      5-min Rain = 0
KAMH 082225Z 08001KT 02/M03 A3023 RMK A01 T00171029  RH  072%=      5-min Rain = 0
KAMH 082230Z 09001KT 02/M03 A3023 RMK A01 T00171029  RH  072%=      5-min Rain = 0
KAMH 082235Z 10002KT 02/M03 A3023 RMK A01 T00171028  RH  072%=      5-min Rain = 0
KAMH 082240Z 13002KT 02/M03 A3023 RMK A01 T00151028  RH  074%=      5-min Rain = 0
KAMH 082245Z 14003KT 01/M03 A3023 RMK A01 T00141028  RH  074%=      5-min Rain = 0
KAMH 082250Z 13003KT 01/M03 A3023 RMK A01 T00131029  RH  074%=      5-min Rain = 0
KAMH 082255Z 12003KT 01/M03 A3023 RMK A01 T00111029  RH  075%=      5-min Rain = 0
KAMH 082300Z 13004KT 01/M03 A3023 RMK A01 T00091027  RH  077%=      5-min Rain = 0
KAMH 082305Z 13004KT 01/M03 A3023 RMK A01 T00081027  RH  078%=      5-min Rain = 0
KAMH 082310Z 14003KT 01/M03 A3023 RMK A01 T00071027  RH  078%=      5-min Rain = 0
KAMH 082315Z 15003KT 01/M03 A3023 RMK A01 T00071028  RH  078%=      5-min Rain = 0
KAMH 082320Z 15002KT 01/M03 A3023 RMK A01 T00051029  RH  078%=      5-min Rain = 0
KAMH 082325Z 15002KT 00/M03 A3023 RMK A01 T00031029  RH  079%=      5-min Rain = 0
KAMH 082330Z 15002KT 00/M03 A3023 RMK A01 T00011030  RH  080%=      5-min Rain = 0
KAMH 082335Z 14003KT M00/M03 A3023 RMK A01 T10011030  RH  081%=      5-min Rain = 0
KAMH 082340Z 14003KT M00/M03 A3023 RMK A01 T10021031  RH  082%=      5-min Rain = 0
KAMH 082345Z 14003KT M00/M03 A3023 RMK A01 T10041032  RH  082%=      5-min Rain = 0
KAMH 082350Z 15002KT M01/M03 A3023 RMK A01 T10071034  RH  083%=      5-min Rain = 0
KAMH 082355Z 14002KT M01/M04 A3023 RMK A01 T10101035  RH  084%=      5-min Rain = 0
KAMH 090000Z 16002KT M01/M04 A3023 RMK A01 T10121035  RH  085%=      5-min Rain = 0
KAMH 090005Z 16002KT M01/M03 A3024 RMK A01 T10131034  RH  086%=      5-min Rain = 0
KAMH 090010Z 16003KT M01/M03 A3024 RMK A01 T10121033  RH  087%=      5-min Rain = 0
KAMH 090015Z 16003KT M01/M03 A3024 RMK A01 T10121032  RH  087%=      5-min Rain = 0
KAMH 090020Z 16002KT M01/M03 A3024 RMK A01 T10111031  RH  087%=      5-min Rain = 0
KAMH 090025Z 16003KT M01/M03 A3024 RMK A01 T10111030  RH  087%=      5-min Rain = 0
KAMH 090030Z 15002KT M01/M03 A3024 RMK A01 T10121031  RH  087%=      5-min Rain = 0
KAMH 090035Z 15002KT M01/M03 A3024 RMK A01 T10141033  RH  088%=      5-min Rain = 0
KAMH 090040Z 15001KT M02/M03 A3024 RMK A01 T10161033  RH  089%=      5-min Rain = 0
KAMH 090045Z 14001KT M02/M03 A3024 RMK A01 T10161032  RH  090%=      5-min Rain = 0
KAMH 090050Z 13001KT M02/M03 A3024 RMK A01 T10161031  RH  090%=      5-min Rain = 0
KAMH 090055Z 08001KT M02/M03 A3024 RMK A01 T10181033  RH  090%=      5-min Rain = 0
KAMH 090100Z 08002KT M02/M04 A3024 RMK A01 T10201035  RH  090%=      5-min Rain = 0
KAMH 090105Z 10001KT M02/M04 A3024 RMK A01 T10231036  RH  091%=      5-min Rain = 0
KAMH 090110Z 13001KT M02/M04 A3025 RMK A01 T10231036  RH  092%=      5-min Rain = 0
KAMH 090115Z 13002KT M02/M04 A3025 RMK A01 T10241036  RH  092%=      5-min Rain = 0
KAMH 090120Z 13002KT M03/M04 A3025 RMK A01 T10261038  RH  092%=      5-min Rain = 0
KAMH 090125Z 13003KT M03/M04 A3025 RMK A01 T10281039  RH  092%=      5-min Rain = 0
KAMH 090130Z 12003KT M03/M04 A3025 RMK A01 T10271037  RH  094%=      5-min Rain = 0
KAMH 090135Z 12002KT M03/M04 A3025 RMK A01 T10271036  RH  094%=      5-min Rain = 0
KAMH 090140Z 12002KT M03/M04 A3025 RMK A01 T10271036  RH  094%=      5-min Rain = 0
KAMH 090145Z 12002KT M03/M04 A3025 RMK A01 T10291037  RH  094%=      5-min Rain = 0
KAMH 090150Z 14002KT M03/M04 A3026 RMK A01 T10311039  RH  094%=      5-min Rain = 0
KAMH 090155Z 14002KT M03/M04 A3026 RMK A01 T10291037  RH  095%=      5-min Rain = 0
KAMH 090200Z 15002KT M03/M04 A3026 RMK A01 T10291036  RH  096%=      5-min Rain = 0
KAMH 090205Z 15002KT M03/M04 A3026 RMK A01 T10291036  RH  096%=      5-min Rain = 0
KAMH 090210Z 15002KT M03/M04 A3026 RMK A01 T10311038  RH  096%=      5-min Rain = 0
KAMH 090215Z 17003KT M03/M04 A3026 RMK A01 T10331039  RH  096%=      5-min Rain = 0
KAMH 090220Z 18005KT M04/M04 A3026 RMK A01 T10351040  RH  096%=      5-min Rain = 0
KAMH 090225Z 20006KT M03/M04 A3026 RMK A01 T10341038  RH  097%=      5-min Rain = 0
KAMH 090230Z 20006KT M03/M04 A3027 RMK A01 T10321036  RH  097%=      5-min Rain = 0
KAMH 090235Z 20006KT M03/M04 A3027 RMK A01 T10301035  RH  097%=      5-min Rain = 0
KAMH 090240Z 19007KT M03/M03 A3026 RMK A01 T10281032  RH  097%=      5-min Rain = 0
KAMH 090245Z 19006KT M03/M03 A3026 RMK A01 T10281033  RH  097%=      5-min Rain = 0
KAMH 090250Z 20006KT M03/M03 A3026 RMK A01 T10281033  RH  097%=      5-min Rain = 0
KAMH 090255Z 20006KT M03/M04 A3027 RMK A01 T10291035  RH  096%=      5-min Rain = 0
KAMH 090300Z 21006KT M03/M04 A3027 RMK A01 T10301036  RH  096%=      5-min Rain = 0
KAMH 090305Z 21006KT M03/M04 A3027 RMK A01 T10291035  RH  096%=      5-min Rain = 0
KAMH 090310Z 22007KT M03/M04 A3027 RMK A01 T10301036  RH  096%=      5-min Rain = 0
KAMH 090315Z 22008KT M03/M04 A3027 RMK A01 T10301037  RH  096%=      5-min Rain = 0
KAMH 090320Z 22008KT M03/M04 A3027 RMK A01 T10291035  RH  096%=      5-min Rain = 0
KAMH 090325Z 22008KT M03/M04 A3027 RMK A01 T10291036  RH  096%=      5-min Rain = 0
KAMH 090330Z 22008KT M03/M04 A3027 RMK A01 T10311037  RH  096%=      5-min Rain = 0
KAMH 090335Z 23008KT M03/M04 A3028 RMK A01 T10321039  RH  096%=      5-min Rain = 0
KAMH 090340Z 23008KT M03/M04 A3028 RMK A01 T10311037  RH  096%=      5-min Rain = 0
KAMH 090345Z 23008KT M03/M04 A3028 RMK A01 T10301036  RH  096%=      5-min Rain = 0
KAMH 090350Z 23008KT M03/M04 A3028 RMK A01 T10301036  RH  096%=      5-min Rain = 0
KAMH 090355Z 23007KT M03/M04 A3028 RMK A01 T10291036  RH  096%=      5-min Rain = 0
KAMH 090400Z 23007KT M03/M04 A3028 RMK A01 T10321039  RH  095%=      5-min Rain = 0
KAMH 090405Z 24006KT M04/M04 A3028 RMK A01 T10351042  RH  095%=      5-min Rain = 0
KAMH 090410Z 24006KT M04/M05 A3028 RMK A01 T10401047  RH  095%=      5-min Rain = 0
KAMH 090415Z 24007KT M04/M05 A3028 RMK A01 T10441050  RH  095%=      5-min Rain = 0
KAMH 090420Z 24007KT M04/M05 A3028 RMK A01 T10421048  RH  096%=      5-min Rain = 0
KAMH 090425Z 24008KT M04/M05 A3028 RMK A01 T10421047  RH  097%=      5-min Rain = 0
KAMH 090430Z 24008KT M04/M05 A3029 RMK A01 T10411046  RH  097%=      5-min Rain = 0
KAMH 090435Z 25009KT M04/M05 A3029 RMK A01 T10401045  RH  097%=      5-min Rain = 0
KAMH 090440Z 25008KT M04/M05 A3029 RMK A01 T10401046  RH  096%=      5-min Rain = 0
KAMH 090445Z 25008KT M04/M05 A3029 RMK A01 T10411047  RH  096%=      5-min Rain = 0
KAMH 090450Z 25008KT M04/M05 A3029 RMK A01 T10431049  RH  096%=      5-min Rain = 0
KAMH 090455Z 25008KT M04/M05 A3029 RMK A01 T10441050  RH  096%=      5-min Rain = 0
KAMH 090500Z 25007KT M04/M05 A3029 RMK A01 T10431048  RH  096%=      5-min Rain = 0
KAMH 090505Z 25007KT M04/M05 A3029 RMK A01 T10431049  RH  096%=      5-min Rain = 0
KAMH 090510Z 24006KT M05/M05 A3029 RMK A01 T10451051  RH  096%=      5-min Rain = 0
KAMH 090515Z 24006KT M05/M05 A3029 RMK A01 T10461052  RH  096%=      5-min Rain = 0
KAMH 090520Z 24006KT M04/M05 A3029 RMK A01 T10441050  RH  096%=      5-min Rain = 0
KAMH 090525Z 24006KT M05/M05 A3029 RMK A01 T10461052  RH  096%=      5-min Rain = 0
KAMH 090530Z 25006KT M05/M05 A3029 RMK A01 T10481054  RH  095%=      5-min Rain = 0
KAMH 090535Z 25007KT M05/M06 A3029 RMK A01 T10491056  RH  095%=      5-min Rain = 0
KAMH 090540Z 26007KT M05/M06 A3029 RMK A01 T10511059  RH  095%=      5-min Rain = 0
KAMH 090545Z 26007KT M06/M07 A3029 RMK A01 T10571065  RH  094%=      5-min Rain = 0
KAMH 090550Z 26008KT M06/M06 A3028 RMK A01 T10551062  RH  095%=      5-min Rain = 0
KAMH 090555Z 26008KT M06/M06 A3028 RMK A01 T10551062  RH  095%=      5-min Rain = 0

Page generated in 0.0087 seconds.